Air Sicilia Virtual Airways - Route

Air Sicilia Virtual Airways - SIC124L

( SY ) OSLK
Bassel Al-Assad International Airport
LATAKIA ( LTK )
plane_to ( TR ) LTAF
Adana Airport
ADANA ( ADA )
Mediterraneo TOUR VFR - LEG: 37

AIRPORT NEAR NAVIGATION AIDS

Type Name Frequency
NDB Banias 304 KHZ
VOR-DME Bassel Al Assad 114800 KHZ
NDB Bassel Al Assad 414 KHZ

METAR / TAF
OSLK 191700Z 27004KT CAVOK 21/16 Q1013
OSLK 1906/2006 12010KT 9999 FEW030 TEMPO 1909/1918 24015KT

RUNWAY INFORMATION

Runway Runway length Runway width Runway elevation Runway displaced threshold Runway heading
17 9175 148 157 0 177
35 9175 148 128 590 357

AIRPORT FREQUENCIES

Type Name Frequency
APP APP 120 MHZ
TWR TWR 118.1 MHZ

AIRPORT NEAR NAVIGATION AIDS

Type Name Frequency
VOR-DME Adana 112700 KHZ
NDB Adana 395 KHZ

METAR / TAF
LTAF 191650Z 19005KT CAVOK 22/16 Q1011 NOSIG RMK RWY23 20008KT

RUNWAY INFORMATION

Runway Runway length Runway width Runway elevation Runway displaced threshold Runway heading
05 9022 148 54 0 54
23 9022 148 65 0 234

AIRPORT FREQUENCIES

Type Name Frequency
APP INCIRLIK A 126.5 MHZ
ATIS 119.225 MHZ
GND 121.9 MHZ
TWR TWR 121.1 MHZ

Flightplan

passando per Iskenderun

Air Sicilia Virtual Airways Fleets

AVAILABLE AIRCRAFTS for route at this time in Bassel Al-Assad International Airport
C172 - Cessna 172 Skyhawk
( US ) Cessna

Aircraft in fleet: 13

159 NM

Distance in nautical miles.

€ 220,00

Ticket price for this flight.

Nr. 37

Leg



12-11-2018
Aerosoft Airport Rio de Janeiro International V2.0 XP

L'Aeroporto Internazionale di Rio de Janeiro-Galeão (IATA: GIG, ICAO: SBGL), costruito nel 1952 nel quartiere di Ilha do Governador ed intitolato al musicista Antônio Carlos Jobim, è il principale aeroporto internazio ....


15-10-2018
Aerosoft A320 Family professional

La gamma di aeromobili A320 è una delle più comuni nei cieli. Questi aerei di linea a doppio-getto a corto e medio raggio si sono dimostrati convenienti, affidabili e prontamente disponibili, rendendoli le opzioni migl ....


10-10-2018
Motore critico ( Critical Engine )

Il motore critico di un velivolo ad ala fissa multi-motore è il motore che, in caso di guasto, influirebbe negativamente sulle prestazioni o sulla capacità di manovra di un aereo. Sui velivoli ad elica, vi è un ....


04-10-2018
Aerosoft Dortmund XP

Scopri il centro della regione della Ruhr su XPlane 11 - lo scenario Dortmund XP è una ricostruzione completa della città di Dortmund per il simulatore di volo targato Laminar. Oltre all'intera area urbana di Dortmu ....


07-08-2018
Aerosoft Professional Flight Planner PFPX

PFPX - Professional Flight Planner X - è un nuovo ed innovativo strumento di pianificazione del volo sviluppato da piloti e dispatcher del mondo reale. È un'aggiunta preziosa e realistica alla tua esperienza di simulaz ....